createdAt,value
2019-01-30T00:00:36.053Z,17.70
2019-01-30T00:01:00.912Z,16.50
2019-01-30T00:03:01.237Z,16.70
2019-01-30T00:03:53.594Z,17.20
2019-01-30T00:04:54.591Z,16.60
2019-01-30T00:05:53.573Z,16.50
2019-01-30T00:06:53.561Z,17.50
2019-01-30T00:07:53.551Z,16.60
2019-01-30T00:08:53.540Z,16.80
2019-01-30T00:09:53.533Z,16.70
2019-01-30T00:10:54.530Z,17.20
2019-01-30T00:11:53.518Z,18.80
2019-01-30T00:12:53.499Z,18.20
2019-01-30T00:13:53.489Z,17.50
2019-01-30T00:14:53.477Z,17.60
2019-01-30T00:15:56.331Z,18.30
2019-01-30T00:16:54.464Z,18.20
2019-01-30T00:17:53.446Z,17.40
2019-01-30T00:18:53.435Z,17.30
2019-01-30T00:19:53.424Z,17.80
2019-01-30T00:20:53.415Z,18.30
2019-01-30T00:21:53.404Z,18.00
2019-01-30T00:22:54.402Z,18.10
2019-01-30T00:23:53.384Z,17.80
2019-01-30T00:24:53.372Z,17.20
2019-01-30T00:25:53.362Z,17.70
2019-01-30T00:26:53.352Z,17.20
2019-01-30T00:27:53.341Z,17.30
2019-01-30T00:28:54.341Z,17.10
2019-01-30T00:30:03.635Z,17.60
2019-01-30T00:30:54.307Z,17.10
2019-01-30T00:31:53.299Z,18.50
2019-01-30T00:32:53.290Z,17.50
2019-01-30T00:33:53.278Z,18.30
2019-01-30T00:34:54.275Z,17.50
2019-01-30T00:35:53.260Z,17.70
2019-01-30T00:36:53.247Z,17.60
2019-01-30T00:37:53.236Z,17.60
2019-01-30T00:38:53.227Z,17.70
2019-01-30T00:39:53.216Z,17.90
2019-01-30T00:40:54.213Z,17.20
2019-01-30T00:41:53.195Z,17.80
2019-01-30T00:42:53.184Z,18.00
2019-01-30T00:43:53.177Z,17.40
2019-01-30T00:44:53.162Z,17.20
2019-01-30T00:45:53.152Z,17.00
2019-01-30T00:46:54.149Z,17.50
2019-01-30T00:47:53.130Z,16.80
2019-01-30T00:48:53.121Z,15.70
2019-01-30T00:49:53.110Z,17.10
2019-01-30T00:50:53.101Z,17.70
2019-01-30T00:51:53.088Z,17.00
2019-01-30T00:52:54.087Z,16.60
2019-01-30T00:53:53.068Z,16.90
2019-01-30T00:54:53.057Z,16.50
2019-01-30T00:55:53.047Z,16.00
2019-01-30T00:56:53.042Z,16.90
2019-01-30T00:57:53.029Z,16.20
2019-01-30T00:58:54.023Z,17.20
2019-01-30T00:59:53.004Z,16.90
2019-01-30T01:00:52.999Z,16.20
2019-01-30T01:01:52.984Z,17.30
2019-01-30T01:02:52.974Z,17.00
2019-01-30T01:03:52.964Z,16.40
2019-01-30T01:04:53.961Z,16.40
2019-01-30T01:05:52.945Z,16.20
2019-01-30T01:06:52.931Z,16.50
2019-01-30T01:07:52.920Z,16.50
2019-01-30T01:08:52.910Z,15.50
2019-01-30T01:09:52.903Z,15.80
2019-01-30T01:10:53.898Z,15.80
2019-01-30T01:11:52.879Z,16.40
2019-01-30T01:12:52.873Z,16.10
2019-01-30T01:13:52.858Z,15.90
2019-01-30T01:14:52.847Z,15.00
2019-01-30T01:15:52.838Z,16.40
2019-01-30T01:16:53.833Z,16.10
2019-01-30T01:17:52.815Z,16.10
2019-01-30T01:18:52.805Z,15.60
2019-01-30T01:19:52.795Z,15.90
2019-01-30T01:20:52.784Z,15.30
2019-01-30T01:21:52.774Z,17.10
2019-01-30T01:22:53.778Z,15.40
2019-01-30T01:23:52.752Z,15.80
2019-01-30T01:24:52.742Z,16.50
2019-01-30T01:25:52.734Z,14.80
2019-01-30T01:26:52.721Z,15.50
2019-01-30T01:27:52.711Z,16.20
2019-01-30T01:28:53.709Z,16.50
2019-01-30T01:29:52.689Z,16.80
2019-01-30T01:30:52.679Z,16.30
2019-01-30T01:31:52.669Z,17.70
2019-01-30T01:32:52.676Z,16.30
2019-01-30T01:33:52.648Z,16.90
2019-01-30T01:34:53.645Z,18.50
2019-01-30T01:35:52.627Z,17.20
2019-01-30T01:36:52.618Z,17.20
2019-01-30T01:37:52.611Z,17.00
2019-01-30T01:38:52.595Z,17.40
2019-01-30T01:39:52.585Z,16.90
2019-01-30T01:40:53.584Z,18.10
2019-01-30T01:41:52.563Z,17.20
2019-01-30T01:42:52.554Z,17.10
2019-01-30T01:43:52.544Z,16.60
2019-01-30T01:44:52.534Z,17.00
2019-01-30T01:45:52.523Z,17.20
2019-01-30T01:46:53.518Z,16.70
2019-01-30T01:47:52.505Z,17.30
2019-01-30T01:48:52.578Z,16.80
2019-01-30T01:49:52.482Z,16.60
2019-01-30T01:50:52.474Z,16.90
2019-01-30T01:51:52.459Z,17.20
2019-01-30T01:52:53.455Z,16.00
2019-01-30T01:53:52.447Z,16.30
2019-01-30T01:54:52.427Z,15.30
2019-01-30T01:55:52.426Z,16.50
2019-01-30T01:56:52.409Z,16.50
2019-01-30T01:57:52.396Z,16.50
2019-01-30T01:58:53.393Z,16.40
2019-01-30T01:59:52.375Z,16.20
2019-01-30T02:00:52.364Z,15.80
2019-01-30T02:01:52.938Z,17.30
2019-01-30T02:02:52.343Z,17.00
2019-01-30T02:03:52.332Z,16.80
2019-01-30T02:04:53.330Z,17.20
2019-01-30T02:05:52.311Z,17.00
2019-01-30T02:06:52.301Z,16.30
2019-01-30T02:07:52.293Z,16.70
2019-01-30T02:08:52.279Z,16.90
2019-01-30T02:09:52.269Z,16.70
2019-01-30T02:10:53.267Z,16.80
2019-01-30T02:11:52.249Z,17.00
2019-01-30T02:12:52.240Z,16.60
2019-01-30T02:13:52.228Z,16.30
2019-01-30T02:14:52.217Z,17.00
2019-01-30T02:15:52.211Z,16.60
2019-01-30T02:16:53.204Z,16.90
2019-01-30T02:17:52.189Z,17.60
2019-01-30T02:18:52.179Z,16.40
2019-01-30T02:19:52.166Z,15.60
2019-01-30T02:20:52.154Z,16.40
2019-01-30T02:21:52.145Z,16.50
2019-01-30T02:22:53.141Z,16.20
2019-01-30T02:23:52.126Z,15.60
2019-01-30T02:24:52.113Z,15.40
2019-01-30T02:25:52.102Z,15.80
2019-01-30T02:26:52.091Z,15.40
2019-01-30T02:27:52.079Z,15.90
2019-01-30T02:28:53.078Z,15.00
2019-01-30T02:29:52.058Z,15.70
2019-01-30T02:30:52.049Z,16.90
2019-01-30T02:31:52.037Z,16.90
2019-01-30T02:32:52.030Z,16.80
2019-01-30T02:33:52.021Z,16.40
2019-01-30T02:34:53.014Z,16.70
2019-01-30T02:35:51.998Z,16.40
2019-01-30T02:36:51.986Z,15.80
2019-01-30T02:37:51.974Z,16.20
2019-01-30T02:38:51.977Z,16.10
2019-01-30T02:39:51.963Z,17.00
2019-01-30T02:40:52.952Z,16.40
2019-01-30T02:41:51.935Z,15.00
2019-01-30T02:42:51.923Z,16.40
2019-01-30T02:43:51.914Z,16.40
2019-01-30T02:44:51.906Z,16.30
2019-01-30T02:45:51.900Z,15.50
2019-01-30T02:46:52.891Z,15.90
2019-01-30T02:47:51.874Z,16.30
2019-01-30T02:48:51.860Z,15.70
2019-01-30T02:49:51.849Z,15.90
2019-01-30T02:50:51.840Z,16.40
2019-01-30T02:51:51.828Z,15.80
2019-01-30T02:52:52.830Z,15.40
2019-01-30T02:53:51.826Z,15.90
2019-01-30T02:54:51.800Z,17.00
2019-01-30T02:55:51.788Z,15.40
2019-01-30T02:56:51.778Z,16.70
2019-01-30T02:57:51.764Z,16.00
2019-01-30T02:58:52.763Z,16.10
2019-01-30T02:59:51.743Z,16.60
2019-01-30T03:00:58.831Z,16.70
2019-01-30T03:01:53.109Z,16.10
2019-01-30T03:02:51.711Z,15.40
2019-01-30T03:03:51.703Z,15.60
2019-01-30T03:04:52.712Z,15.50
2019-01-30T03:05:51.681Z,15.30
2019-01-30T03:06:51.670Z,16.00
2019-01-30T03:07:51.663Z,17.00
2019-01-30T03:08:51.648Z,16.60
2019-01-30T03:09:51.641Z,15.90
2019-01-30T03:10:52.671Z,16.10
2019-01-30T03:11:51.618Z,16.20
2019-01-30T03:12:51.609Z,16.10
2019-01-30T03:13:51.597Z,15.40
2019-01-30T03:14:51.585Z,16.30
2019-01-30T03:15:51.576Z,17.00
2019-01-30T03:16:52.574Z,16.60
2019-01-30T03:17:51.573Z,15.10
2019-01-30T03:18:51.545Z,16.60
2019-01-30T03:19:51.535Z,14.80
2019-01-30T03:20:51.525Z,15.40
2019-01-30T03:21:51.513Z,17.10
2019-01-30T03:22:52.512Z,15.50
2019-01-30T03:23:51.490Z,15.50
2019-01-30T03:24:51.480Z,15.70
2019-01-30T03:25:51.471Z,15.90
2019-01-30T03:26:51.461Z,16.70
2019-01-30T03:27:51.508Z,15.80
2019-01-30T03:28:52.447Z,16.10
2019-01-30T03:29:51.427Z,16.10
2019-01-30T03:30:51.422Z,16.30
2019-01-30T03:31:51.410Z,15.70
2019-01-30T03:32:51.401Z,15.60
2019-01-30T03:33:51.387Z,14.90
2019-01-30T03:34:52.382Z,15.60
2019-01-30T03:35:51.369Z,16.00
2019-01-30T03:36:51.354Z,15.50
2019-01-30T03:37:51.348Z,15.30
2019-01-30T03:38:51.334Z,15.20
2019-01-30T03:39:51.325Z,15.00
2019-01-30T03:40:52.325Z,14.50
2019-01-30T03:41:51.317Z,15.00
2019-01-30T03:42:51.325Z,15.20
2019-01-30T03:43:51.282Z,14.90
2019-01-30T03:44:51.270Z,15.40
2019-01-30T03:45:51.262Z,14.80
2019-01-30T03:46:52.258Z,15.80
2019-01-30T03:47:51.241Z,15.70
2019-01-30T03:48:51.233Z,14.50
2019-01-30T03:49:51.222Z,16.00
2019-01-30T03:50:51.223Z,14.90
2019-01-30T03:51:51.197Z,15.40
2019-01-30T03:52:52.197Z,15.90
2019-01-30T03:53:51.175Z,16.00
2019-01-30T03:54:51.193Z,15.20
2019-01-30T03:55:51.156Z,15.30
2019-01-30T03:56:51.146Z,15.80
2019-01-30T03:57:51.135Z,15.80
2019-01-30T03:58:52.135Z,16.50
2019-01-30T03:59:51.113Z,15.20
2019-01-30T04:00:51.103Z,15.00
2019-01-30T04:01:51.093Z,15.50
2019-01-30T04:02:51.082Z,15.40
2019-01-30T04:03:51.071Z,14.20
2019-01-30T04:04:52.069Z,15.60
2019-01-30T04:05:51.049Z,15.00
2019-01-30T04:06:51.041Z,15.00
2019-01-30T04:07:51.028Z,14.40
2019-01-30T04:08:51.022Z,15.40
2019-01-30T04:09:51.010Z,14.90
2019-01-30T04:10:52.006Z,14.40
2019-01-30T04:11:50.986Z,13.20
2019-01-30T04:12:50.978Z,15.10
2019-01-30T04:13:50.968Z,13.90
2019-01-30T04:14:50.957Z,13.00
2019-01-30T04:15:50.945Z,14.10
2019-01-30T04:16:51.941Z,14.10
2019-01-30T04:17:50.924Z,14.10
2019-01-30T04:18:50.913Z,14.10
2019-01-30T04:19:50.902Z,13.60
2019-01-30T04:20:50.900Z,13.90
2019-01-30T04:21:50.885Z,14.20
2019-01-30T04:22:51.880Z,14.20
2019-01-30T04:23:50.861Z,14.90
2019-01-30T04:24:50.855Z,14.20
2019-01-30T04:25:50.848Z,13.90
2019-01-30T04:26:50.834Z,14.50
2019-01-30T04:27:50.822Z,14.50
2019-01-30T04:28:51.822Z,14.70
2019-01-30T04:29:50.803Z,15.30
2019-01-30T04:30:50.793Z,15.30
2019-01-30T04:31:50.780Z,14.70
2019-01-30T04:32:50.769Z,14.30
2019-01-30T04:33:50.764Z,13.80
2019-01-30T04:34:51.760Z,14.00
2019-01-30T04:35:50.736Z,14.80
2019-01-30T04:36:50.744Z,14.10
2019-01-30T04:37:50.721Z,14.30
2019-01-30T04:38:50.706Z,15.00
2019-01-30T04:39:50.696Z,14.20
2019-01-30T04:40:51.694Z,13.10
2019-01-30T04:41:50.675Z,13.80
2019-01-30T04:42:50.781Z,13.20
2019-01-30T04:43:50.651Z,13.30
2019-01-30T04:44:50.642Z,13.50
2019-01-30T04:45:50.636Z,13.50
2019-01-30T04:46:51.632Z,13.30
2019-01-30T04:47:50.626Z,13.60
2019-01-30T04:48:50.602Z,13.20
2019-01-30T04:49:50.591Z,13.80
2019-01-30T04:50:50.580Z,13.90
2019-01-30T04:51:50.572Z,13.30
2019-01-30T04:52:51.564Z,13.40
2019-01-30T04:53:50.553Z,13.90
2019-01-30T04:54:50.538Z,13.70
2019-01-30T04:55:50.533Z,13.40
2019-01-30T04:56:50.517Z,13.30
2019-01-30T04:57:50.507Z,14.00
2019-01-30T04:58:51.501Z,13.60
2019-01-30T04:59:50.483Z,13.10
2019-01-30T05:00:50.476Z,13.60
2019-01-30T05:01:50.461Z,13.30
2019-01-30T05:02:50.458Z,13.50
2019-01-30T05:03:50.443Z,13.50
2019-01-30T05:04:51.444Z,14.00
2019-01-30T05:05:50.420Z,13.70
2019-01-30T05:06:50.411Z,13.70
2019-01-30T05:07:50.404Z,14.50
2019-01-30T05:08:50.390Z,13.60
2019-01-30T05:09:50.377Z,13.60
2019-01-30T05:10:51.380Z,13.80
2019-01-30T05:11:50.355Z,14.20
2019-01-30T05:12:50.346Z,15.00
2019-01-30T05:13:50.338Z,13.50
2019-01-30T05:14:50.332Z,13.70
2019-01-30T05:15:50.314Z,13.90
2019-01-30T05:16:51.315Z,14.10
2019-01-30T05:17:50.294Z,15.20
2019-01-30T05:18:50.285Z,13.80
2019-01-30T05:19:50.283Z,13.70
2019-01-30T05:20:50.263Z,14.80
2019-01-30T05:21:50.252Z,13.90
2019-01-30T05:22:51.251Z,13.60
2019-01-30T05:23:50.232Z,13.50
2019-01-30T05:24:50.218Z,13.70
2019-01-30T05:25:50.211Z,13.00
2019-01-30T05:26:50.206Z,12.70
2019-01-30T05:27:50.189Z,13.80
2019-01-30T05:28:51.187Z,13.90
2019-01-30T05:29:50.177Z,13.20
2019-01-30T05:30:50.156Z,14.40
2019-01-30T05:32:00.683Z,13.40
2019-01-30T05:32:51.138Z,14.30
2019-01-30T05:33:50.140Z,13.40
2019-01-30T05:34:51.126Z,13.60
2019-01-30T05:35:50.112Z,14.70
2019-01-30T05:36:50.093Z,13.80
2019-01-30T05:37:51.402Z,14.00
2019-01-30T05:38:50.077Z,14.40
2019-01-30T05:39:50.063Z,13.30
2019-01-30T05:40:51.065Z,13.90
2019-01-30T05:41:50.048Z,14.20
2019-01-30T05:42:50.032Z,13.70
2019-01-30T05:43:50.027Z,13.40
2019-01-30T05:44:50.015Z,13.90
2019-01-30T05:45:50.001Z,14.60
2019-01-30T05:46:50.999Z,13.40
2019-01-30T05:47:49.986Z,13.90
2019-01-30T05:48:49.972Z,13.50
2019-01-30T05:49:50.019Z,14.30
2019-01-30T05:50:49.947Z,14.30
2019-01-30T05:51:49.937Z,13.50
2019-01-30T05:52:50.948Z,13.90
2019-01-30T05:53:49.914Z,13.70
2019-01-30T05:54:49.908Z,13.40
2019-01-30T05:55:49.896Z,13.30
2019-01-30T05:56:49.885Z,13.00
2019-01-30T05:57:49.886Z,13.00
2019-01-30T05:58:50.878Z,13.70
2019-01-30T05:59:49.852Z,14.10
2019-01-30T06:00:49.846Z,13.00
2019-01-30T06:01:49.844Z,13.30
2019-01-30T06:02:49.825Z,13.10
2019-01-30T06:03:49.809Z,13.50
2019-01-30T06:04:50.807Z,14.60
2019-01-30T06:05:49.791Z,13.10
2019-01-30T06:06:49.778Z,14.20
2019-01-30T06:07:49.770Z,13.90
2019-01-30T06:08:49.776Z,13.20
2019-01-30T06:09:49.748Z,13.70
2019-01-30T06:10:50.750Z,13.00
2019-01-30T06:11:49.730Z,13.20
2019-01-30T06:12:49.719Z,13.70
2019-01-30T06:13:49.707Z,12.90
2019-01-30T06:14:49.700Z,13.20
2019-01-30T06:15:49.689Z,14.20
2019-01-30T06:16:50.682Z,13.20
2019-01-30T06:17:49.669Z,13.60
2019-01-30T06:18:49.652Z,14.10
2019-01-30T06:19:49.644Z,13.10
2019-01-30T06:20:49.633Z,13.50
2019-01-30T06:21:49.618Z,13.40
2019-01-30T06:22:50.618Z,12.70
2019-01-30T06:23:49.603Z,12.80
2019-01-30T06:24:49.598Z,13.60
2019-01-30T06:25:49.580Z,13.00
2019-01-30T06:26:49.644Z,13.00
2019-01-30T06:27:49.784Z,13.00
2019-01-30T06:28:50.602Z,13.90
2019-01-30T06:29:49.537Z,13.30
2019-01-30T06:30:49.531Z,12.40
2019-01-30T06:31:49.514Z,13.10
2019-01-30T06:32:49.504Z,13.60
2019-01-30T06:33:49.502Z,12.80
2019-01-30T06:34:50.490Z,12.70
2019-01-30T06:35:49.472Z,13.50
2019-01-30T06:36:49.463Z,13.60
2019-01-30T06:37:49.542Z,12.60
2019-01-30T06:38:49.449Z,13.00
2019-01-30T06:39:49.430Z,13.20
2019-01-30T06:40:50.431Z,12.80
2019-01-30T06:41:49.412Z,11.80
2019-01-30T06:42:49.402Z,12.30
2019-01-30T06:43:49.389Z,13.10
2019-01-30T06:44:49.380Z,12.20
2019-01-30T06:45:49.373Z,12.90
2019-01-30T06:46:50.363Z,13.20
2019-01-30T06:47:49.345Z,13.20
2019-01-30T06:48:49.336Z,13.60
2019-01-30T06:49:49.329Z,13.40
2019-01-30T06:50:49.315Z,13.20
2019-01-30T06:51:49.303Z,12.80
2019-01-30T06:52:50.302Z,13.10
2019-01-30T06:53:49.285Z,13.30
2019-01-30T06:54:49.274Z,12.50
2019-01-30T06:55:49.262Z,12.70
2019-01-30T06:56:49.253Z,12.80
2019-01-30T06:57:49.241Z,13.20
2019-01-30T06:58:50.238Z,12.80
2019-01-30T06:59:49.221Z,12.60
2019-01-30T07:00:49.214Z,13.20
2019-01-30T07:01:49.200Z,12.20
2019-01-30T07:02:49.190Z,12.50
2019-01-30T07:03:49.182Z,11.30
2019-01-30T07:04:50.177Z,11.60
2019-01-30T07:05:49.159Z,11.50
2019-01-30T07:06:49.148Z,11.50
2019-01-30T07:07:49.138Z,12.20
2019-01-30T07:08:49.125Z,11.40
2019-01-30T07:09:49.115Z,10.50
2019-01-30T07:10:50.112Z,11.70
2019-01-30T07:11:49.094Z,9.80
2019-01-30T07:12:49.084Z,11.60
2019-01-30T07:13:49.116Z,11.50
2019-01-30T07:14:49.064Z,11.00
2019-01-30T07:15:49.055Z,11.00
2019-01-30T07:16:50.054Z,10.90
2019-01-30T07:17:49.035Z,10.70
2019-01-30T07:18:49.024Z,10.50
2019-01-30T07:19:49.014Z,11.10
2019-01-30T07:20:49.007Z,11.10
2019-01-30T07:21:49.012Z,10.80
2019-01-30T07:22:49.992Z,10.90
2019-01-30T07:23:48.970Z,10.80
2019-01-30T07:24:48.960Z,10.80
2019-01-30T07:25:48.949Z,10.60
2019-01-30T07:26:48.938Z,10.40
2019-01-30T07:27:48.929Z,10.80
2019-01-30T07:28:49.992Z,10.60
2019-01-30T07:29:48.908Z,10.60
2019-01-30T07:30:48.898Z,10.20
2019-01-30T07:31:48.886Z,11.80
2019-01-30T07:32:48.875Z,11.70
2019-01-30T07:33:48.866Z,11.60
2019-01-30T07:34:49.862Z,10.70
2019-01-30T07:35:48.842Z,11.40
2019-01-30T07:36:48.831Z,10.10
2019-01-30T07:37:48.823Z,11.60
2019-01-30T07:38:48.812Z,10.80
2019-01-30T07:39:48.818Z,11.40
2019-01-30T07:40:49.803Z,11.90
2019-01-30T07:41:48.780Z,11.70
2019-01-30T07:42:48.771Z,10.80
2019-01-30T07:43:48.760Z,11.50
2019-01-30T07:44:50.696Z,11.30
2019-01-30T07:45:48.738Z,10.90
2019-01-30T07:46:49.736Z,11.40
2019-01-30T07:47:48.716Z,11.20
2019-01-30T07:48:48.707Z,11.60
2019-01-30T07:49:48.700Z,10.90
2019-01-30T07:50:48.687Z,11.10
2019-01-30T07:51:48.675Z,11.70
2019-01-30T07:52:49.672Z,10.80
2019-01-30T07:53:48.656Z,12.10
2019-01-30T07:54:48.653Z,11.00
2019-01-30T07:55:48.632Z,11.20
2019-01-30T07:56:48.623Z,11.60
2019-01-30T07:57:48.619Z,11.70
2019-01-30T07:58:49.610Z,12.10
2019-01-30T07:59:48.591Z,11.30
2019-01-30T08:00:48.584Z,11.40
2019-01-30T08:01:48.569Z,11.70
2019-01-30T08:02:53.257Z,12.80
2019-01-30T08:03:49.547Z,12.10
2019-01-30T08:04:49.545Z,11.30
2019-01-30T08:05:48.527Z,11.50
2019-01-30T08:06:48.518Z,11.30
2019-01-30T08:07:48.506Z,11.10
2019-01-30T08:08:49.698Z,10.80
2019-01-30T08:09:48.486Z,11.60
2019-01-30T08:10:49.487Z,11.70
2019-01-30T08:11:48.469Z,10.90
2019-01-30T08:12:48.455Z,11.40
2019-01-30T08:13:48.581Z,11.80
2019-01-30T08:14:48.432Z,11.90
2019-01-30T08:15:48.442Z,12.50
2019-01-30T08:16:49.418Z,11.20
2019-01-30T08:17:48.402Z,11.40
2019-01-30T08:18:48.388Z,11.50
2019-01-30T08:19:48.380Z,11.80
2019-01-30T08:20:48.371Z,10.90
2019-01-30T08:21:48.361Z,11.60
2019-01-30T08:22:49.460Z,11.50
2019-01-30T08:23:48.788Z,11.60
2019-01-30T08:24:48.648Z,12.60
2019-01-30T08:25:48.317Z,11.80
2019-01-30T08:26:48.432Z,11.90
2019-01-30T08:27:48.485Z,11.70
2019-01-30T08:28:49.742Z,11.60
2019-01-30T08:29:48.276Z,12.00
2019-01-30T08:30:48.381Z,11.40
2019-01-30T08:31:48.367Z,12.80
2019-01-30T08:32:48.240Z,11.30
2019-01-30T08:33:48.232Z,11.40
2019-01-30T08:34:49.227Z,11.80
2019-01-30T08:35:48.209Z,11.60
2019-01-30T08:36:48.199Z,11.70
2019-01-30T08:37:48.186Z,11.30
2019-01-30T08:38:49.183Z,12.10
2019-01-30T08:39:48.180Z,11.60
2019-01-30T08:40:49.164Z,11.60
2019-01-30T08:41:48.148Z,11.00
2019-01-30T08:42:48.133Z,11.40
2019-01-30T08:43:48.122Z,11.10
2019-01-30T08:44:48.113Z,12.10
2019-01-30T08:45:48.103Z,11.10
2019-01-30T08:46:49.100Z,12.10
2019-01-30T08:47:48.082Z,11.00
2019-01-30T08:48:48.069Z,10.90
2019-01-30T08:49:48.061Z,11.60
2019-01-30T08:50:48.066Z,11.30
2019-01-30T08:51:48.045Z,10.70
2019-01-30T08:52:49.042Z,11.20
2019-01-30T08:53:48.022Z,12.00
2019-01-30T08:54:48.008Z,11.50
2019-01-30T08:55:48.007Z,11.40
2019-01-30T08:56:52.962Z,11.60
2019-01-30T08:57:48.972Z,11.40
2019-01-30T08:58:48.976Z,11.60
2019-01-30T08:59:47.954Z,12.30
2019-01-30T09:00:47.943Z,11.40
2019-01-30T09:01:47.930Z,11.70
2019-01-30T09:02:47.925Z,11.90
2019-01-30T09:03:47.909Z,12.10
2019-01-30T09:04:48.909Z,11.40
2019-01-30T09:05:47.887Z,11.80
2019-01-30T09:06:47.882Z,11.90
2019-01-30T09:07:47.868Z,12.80
2019-01-30T09:08:47.860Z,11.30
2019-01-30T09:09:47.848Z,11.40
2019-01-30T09:10:48.844Z,11.70
2019-01-30T09:11:47.826Z,11.40
2019-01-30T09:12:47.949Z,12.10
2019-01-30T09:13:47.890Z,12.00
2019-01-30T09:14:47.822Z,11.10
2019-01-30T09:15:47.785Z,11.40
2019-01-30T09:16:48.784Z,12.10
2019-01-30T09:17:47.765Z,11.70
2019-01-30T09:18:47.750Z,11.40
2019-01-30T09:19:47.738Z,11.10
2019-01-30T09:20:47.727Z,11.00
2019-01-30T09:21:47.717Z,11.60
2019-01-30T09:22:48.719Z,11.70
2019-01-30T09:23:47.698Z,12.40
2019-01-30T09:24:47.685Z,11.80
2019-01-30T09:25:47.683Z,11.70
2019-01-30T09:26:47.664Z,11.40
2019-01-30T09:27:47.653Z,11.20
2019-01-30T09:28:48.652Z,11.20
2019-01-30T09:29:47.631Z,11.50
2019-01-30T09:30:47.620Z,11.70
2019-01-30T09:31:47.609Z,11.50
2019-01-30T09:32:47.598Z,11.90
2019-01-30T09:33:47.592Z,11.50
2019-01-30T09:34:48.699Z,11.80
2019-01-30T09:35:47.567Z,12.00
2019-01-30T09:36:47.555Z,10.70
2019-01-30T09:37:47.543Z,11.80
2019-01-30T09:38:47.545Z,11.70
2019-01-30T09:39:48.702Z,12.10
2019-01-30T09:40:48.520Z,11.70
2019-01-30T09:41:47.538Z,11.00
2019-01-30T09:42:47.492Z,11.10
2019-01-30T09:43:47.482Z,10.80
2019-01-30T09:44:47.470Z,11.60
2019-01-30T09:45:47.458Z,11.40
2019-01-30T09:46:48.453Z,11.40
2019-01-30T09:47:47.438Z,10.80
2019-01-30T09:48:47.426Z,11.20
2019-01-30T09:49:47.416Z,10.70
2019-01-30T09:50:47.404Z,11.60
2019-01-30T09:51:47.394Z,10.70
2019-01-30T09:52:48.393Z,10.10
2019-01-30T09:53:47.372Z,10.90
2019-01-30T09:54:47.366Z,11.60
2019-01-30T09:55:47.352Z,11.30
2019-01-30T09:56:47.340Z,10.30
2019-01-30T09:57:47.329Z,11.30
2019-01-30T09:58:48.332Z,11.10
2019-01-30T09:59:47.312Z,11.20
2019-01-30T10:00:47.298Z,10.70
2019-01-30T10:01:47.287Z,10.90
2019-01-30T10:02:47.279Z,10.40
2019-01-30T10:03:47.267Z,10.30
2019-01-30T10:04:48.264Z,10.40
2019-01-30T10:05:47.245Z,10.80
2019-01-30T10:06:47.234Z,11.20
2019-01-30T10:07:47.222Z,10.10
2019-01-30T10:08:47.211Z,11.20
2019-01-30T10:09:47.201Z,9.70
2019-01-30T10:10:48.198Z,9.90
2019-01-30T10:11:47.184Z,9.70
2019-01-30T10:12:47.166Z,10.60
2019-01-30T10:13:47.157Z,9.60
2019-01-30T10:14:47.144Z,9.90
2019-01-30T10:15:47.135Z,10.60
2019-01-30T10:16:48.137Z,9.90
2019-01-30T10:17:47.113Z,10.60
2019-01-30T10:18:47.102Z,10.50
2019-01-30T10:19:47.094Z,10.70
2019-01-30T10:20:47.084Z,9.40
2019-01-30T10:21:47.074Z,10.00
2019-01-30T10:22:48.069Z,10.00
2019-01-30T10:23:47.051Z,9.80
2019-01-30T10:24:47.038Z,10.00
2019-01-30T10:25:47.086Z,9.50
2019-01-30T10:26:47.019Z,9.50
2019-01-30T10:27:47.006Z,9.70
2019-01-30T10:28:48.005Z,9.80
2019-01-30T10:29:46.984Z,9.60
2019-01-30T10:30:46.979Z,10.50
2019-01-30T10:31:46.964Z,9.90
2019-01-30T10:32:46.953Z,9.10
2019-01-30T10:33:47.020Z,9.60
2019-01-30T10:34:47.940Z,10.00
2019-01-30T10:35:46.920Z,9.10
2019-01-30T10:36:46.908Z,8.90
2019-01-30T10:37:46.902Z,9.30
2019-01-30T10:38:46.886Z,9.40
2019-01-30T10:39:46.877Z,8.90
2019-01-30T10:40:47.877Z,8.80
2019-01-30T10:41:46.856Z,9.10
2019-01-30T10:42:46.844Z,8.60
2019-01-30T10:43:46.832Z,8.70
2019-01-30T10:44:46.832Z,9.10
2019-01-30T10:45:46.814Z,8.40
2019-01-30T10:46:47.811Z,9.00
2019-01-30T10:47:46.790Z,8.70
2019-01-30T10:48:46.780Z,8.50
2019-01-30T10:49:46.770Z,9.00
2019-01-30T10:50:46.763Z,9.10
2019-01-30T10:51:46.754Z,9.10
2019-01-30T10:52:47.744Z,9.00
2019-01-30T10:53:48.190Z,9.00
2019-01-30T10:54:46.717Z,8.70
2019-01-30T10:55:46.710Z,9.00
2019-01-30T10:56:46.705Z,8.40
2019-01-30T10:57:46.681Z,8.30
2019-01-30T10:58:47.683Z,8.30
2019-01-30T10:59:46.661Z,7.90
2019-01-30T11:00:46.651Z,8.00
2019-01-30T11:01:46.639Z,8.10
2019-01-30T11:02:46.650Z,7.20
2019-01-30T11:03:56.793Z,7.20
2019-01-30T11:04:48.614Z,7.20
2019-01-30T11:05:46.596Z,7.10
2019-01-30T11:06:46.583Z,6.90
2019-01-30T11:07:46.574Z,7.30
2019-01-30T11:08:46.562Z,7.30
2019-01-30T11:09:46.552Z,7.20
2019-01-30T11:10:47.549Z,7.00
2019-01-30T11:11:46.531Z,6.80
2019-01-30T11:12:46.522Z,6.50
2019-01-30T11:13:46.511Z,6.80
2019-01-30T11:14:46.496Z,6.90
2019-01-30T11:15:46.487Z,6.50
2019-01-30T11:16:47.492Z,6.60
2019-01-30T11:17:46.464Z,6.30
2019-01-30T11:18:46.453Z,6.30
2019-01-30T11:19:46.445Z,6.10
2019-01-30T11:20:46.431Z,6.30
2019-01-30T11:21:46.422Z,6.90
2019-01-30T11:22:47.421Z,6.60
2019-01-30T11:23:46.402Z,6.80
2019-01-30T11:24:46.391Z,6.70
2019-01-30T11:25:46.379Z,7.20
2019-01-30T11:26:46.370Z,7.20
2019-01-30T11:27:46.361Z,7.10
2019-01-30T11:28:47.360Z,6.70
2019-01-30T11:29:46.339Z,6.90
2019-01-30T11:30:46.328Z,7.20
2019-01-30T11:31:46.316Z,6.60
2019-01-30T11:32:46.308Z,7.30
2019-01-30T11:33:46.294Z,7.20
2019-01-30T11:34:47.295Z,7.40
2019-01-30T11:35:46.277Z,7.50
2019-01-30T11:36:46.263Z,6.60
2019-01-30T11:37:46.250Z,7.30
2019-01-30T11:38:46.239Z,7.30
2019-01-30T11:39:46.227Z,7.70
2019-01-30T11:40:47.224Z,8.10
2019-01-30T11:41:46.208Z,7.60
2019-01-30T11:42:46.195Z,7.70
2019-01-30T11:43:46.184Z,7.90
2019-01-30T11:44:46.173Z,7.90
2019-01-30T11:45:46.162Z,8.20
2019-01-30T11:46:47.158Z,7.50
2019-01-30T11:47:46.140Z,7.90
2019-01-30T11:48:56.027Z,7.60
2019-01-30T11:49:47.115Z,7.90
2019-01-30T11:50:46.106Z,7.50
2019-01-30T11:51:46.097Z,8.20
2019-01-30T11:52:47.094Z,7.50
2019-01-30T11:53:46.075Z,7.30
2019-01-30T11:54:46.063Z,8.20
2019-01-30T11:55:46.052Z,8.20
2019-01-30T11:56:46.046Z,8.30
2019-01-30T11:57:46.030Z,8.30
2019-01-30T11:58:47.035Z,8.80
2019-01-30T11:59:46.011Z,8.20
2019-01-30T12:00:46.000Z,8.20
2019-01-30T12:01:45.988Z,8.00
2019-01-30T12:02:47.860Z,8.00
2019-01-30T12:03:45.967Z,7.80
2019-01-30T12:04:46.962Z,8.20
2019-01-30T12:05:45.943Z,8.10
2019-01-30T12:06:45.933Z,8.10
2019-01-30T12:07:45.921Z,7.80
2019-01-30T12:08:45.913Z,8.00
2019-01-30T12:09:45.901Z,7.70
2019-01-30T12:10:46.898Z,7.90
2019-01-30T12:11:45.880Z,7.40
2019-01-30T12:12:45.870Z,8.10
2019-01-30T12:13:45.923Z,7.60
2019-01-30T12:14:45.856Z,8.00
2019-01-30T12:15:45.838Z,7.60
2019-01-30T12:16:46.833Z,7.90
2019-01-30T12:17:45.815Z,8.20
2019-01-30T12:18:45.804Z,8.50
2019-01-30T12:19:45.794Z,7.90
2019-01-30T12:20:45.782Z,8.30
2019-01-30T12:21:45.772Z,7.90
2019-01-30T12:22:46.768Z,8.20
2019-01-30T12:23:45.750Z,7.30
2019-01-30T12:24:45.736Z,7.60
2019-01-30T12:25:45.728Z,8.00
2019-01-30T12:26:45.714Z,8.30
2019-01-30T12:27:45.705Z,8.10
2019-01-30T12:28:46.705Z,7.70
2019-01-30T12:29:45.682Z,7.90
2019-01-30T12:30:45.673Z,7.30
2019-01-30T12:31:45.666Z,7.70
2019-01-30T12:32:45.650Z,8.20
2019-01-30T12:33:45.641Z,7.90
2019-01-30T12:34:46.643Z,8.70
2019-01-30T12:35:45.615Z,7.80
2019-01-30T12:36:45.612Z,8.00
2019-01-30T12:37:45.595Z,7.70
2019-01-30T12:38:45.583Z,7.30
2019-01-30T12:39:45.575Z,8.30
2019-01-30T12:40:46.573Z,7.80
2019-01-30T12:41:45.552Z,7.50
2019-01-30T12:42:45.540Z,8.60
2019-01-30T12:43:45.539Z,8.10
2019-01-30T12:44:45.519Z,8.00
2019-01-30T12:45:45.509Z,8.60
2019-01-30T12:46:46.507Z,7.90
2019-01-30T12:47:45.487Z,7.40
2019-01-30T12:48:45.478Z,8.20
2019-01-30T12:49:45.467Z,8.50
2019-01-30T12:50:45.463Z,8.20
2019-01-30T12:51:45.457Z,8.50
2019-01-30T12:52:46.451Z,8.40
2019-01-30T12:53:45.426Z,8.10
2019-01-30T12:54:45.415Z,8.10
2019-01-30T12:55:45.424Z,8.00
2019-01-30T12:56:45.397Z,9.20
2019-01-30T12:57:45.379Z,9.10